Time;durP1;ratioP1;P1;durP2;ratioP2;P2;SDS_P1;SDS_P2;PMS_P1;PMS_P2;Temp;Humidity;BMP_temperature;BMP_pressure;BME280_temperature;BME280_humidity;BME280_pressure;Samples;Min_cycle;Max_cycle;Signal;HPM_P1;HPM_P2
2021/07/02 00:00:24;;;;;;;2.55;1.65;;;564.10;2432.00;;;;;;5088151;28;20577;-75
2021/07/02 00:03:04;;;;;;;5.25;1.90;;;564.10;2432.00;;;;;;5072934;28;20123;-74
2021/07/02 00:05:33;;;;;;;3.08;1.60;;;564.10;2432.00;;;;;;5088934;28;20016;-75
2021/07/02 00:08:05;;;;;;;2.95;1.48;;;564.10;2432.00;;;;;;5089220;28;20016;-75
2021/07/02 00:10:33;;;;;;;5.43;1.58;;;588.80;2432.00;;;;;;5087273;28;20047;-74
2021/07/02 00:12:59;;;;;;;4.80;1.40;;;588.80;2432.00;;;;;;5081619;28;20769;-74
2021/07/02 00:15:34;;;;;;;3.80;1.90;;;588.90;2432.00;;;;;;5074607;28;20024;-75
2021/07/02 00:18:00;;;;;;;2.95;1.83;;;588.90;2432.00;;;;;;5075323;28;20020;-75
2021/07/02 00:20:26;;;;;;;4.60;1.63;;;589.00;2432.00;;;;;;5090853;28;20074;-75
2021/07/02 00:22:51;;;;;;;4.72;1.40;;;589.00;2432.00;;;;;;5072899;28;20024;-75
2021/07/02 00:25:23;;;;;;;2.20;1.30;;;589.00;2432.00;;;;;;5072279;28;20035;-75
2021/07/02 00:27:52;;;;;;;1.67;1.40;;;589.00;2406.40;;;;;;5070573;28;20467;-74
2021/07/02 00:30:24;;;;;;;3.97;1.50;;;589.00;2406.40;;;;;;5090217;28;20070;-74
2021/07/02 00:32:52;;;;;;;2.67;1.50;;;589.00;2380.80;;;;;;5083164;28;20096;-75
2021/07/02 00:35:18;;;;;;;8.63;1.42;;;589.00;2355.20;;;;;;5069599;28;20016;-75
2021/07/02 00:37:56;;;;;;;3.25;1.13;;;589.00;2329.60;;;;;;5088779;28;20111;-74
2021/07/02 00:40:24;;;;;;;8.32;1.65;;;588.90;2304.00;;;;;;5088427;28;20024;-74
2021/07/02 00:42:50;;;;;;;3.65;1.38;;;589.00;2329.60;;;;;;5085681;28;20020;-74
2021/07/02 00:45:16;;;;;;;5.07;1.55;;;588.90;2329.60;;;;;;5071307;28;20012;-73
2021/07/02 00:47:45;;;;;;;4.95;2.42;;;588.80;2355.20;;;;;;5073977;28;20115;-74
2021/07/02 00:50:12;;;;;;;2.35;1.30;;;588.80;2380.80;;;;;;5085031;28;20429;-75
2021/07/02 00:52:38;;;;;;;2.15;1.40;;;564.10;2380.80;;;;;;5078970;28;20052;-75
2021/07/02 00:55:07;;;;;;;2.95;1.38;;;564.00;2406.40;;;;;;5081093;28;20051;-75
2021/07/02 00:57:36;;;;;;;2.42;1.25;;;564.00;2432.00;;;;;;5077363;28;20021;-77
2021/07/02 01:00:08;;;;;;;4.32;1.40;;;564.00;2432.00;;;;;;5060097;28;20037;-74
2021/07/02 01:02:37;;;;;;;3.20;1.50;;;564.10;2432.00;;;;;;5072354;28;20016;-74
2021/07/02 01:05:10;;;;;;;2.78;1.60;;;564.00;2432.00;;;;;;5061032;28;20105;-74
2021/07/02 01:07:43;;;;;;;3.85;1.70;;;564.00;2432.00;;;;;;5059546;28;20047;-74
2021/07/02 01:10:11;;;;;;;5.25;1.75;;;564.00;2432.00;;;;;;5059490;28;20028;-74
2021/07/02 01:12:39;;;;;;;4.10;1.83;;;564.00;2432.00;;;;;;5061585;28;20059;-74
2021/07/02 01:15:28;;;;;;;5.13;2.08;;;564.00;2432.00;;;;;;5065233;28;20039;-75
2021/07/02 01:17:57;;;;;;;6.10;1.98;;;564.00;2432.00;;;;;;5072843;28;20142;-74
2021/07/02 01:20:24;;;;;;;6.20;1.98;;;564.00;2432.00;;;;;;5067830;28;20123;-75
2021/07/02 01:22:49;;;;;;;3.40;1.50;;;564.00;2432.00;;;;;;5079828;28;20025;-75
2021/07/02 01:25:15;;;;;;;5.60;1.63;;;563.90;2432.00;;;;;;5077021;28;20086;-75
2021/07/02 01:27:47;;;;;;;2.83;1.42;;;563.70;2432.00;;;;;;5078142;28;20024;-75
2021/07/02 01:30:14;;;;;;;4.38;1.70;;;563.70;2432.00;;;;;;5079944;28;20035;-75
2021/07/02 01:32:40;;;;;;;5.97;1.67;;;563.60;2432.00;;;;;;5092219;28;20024;-74
2021/07/02 01:35:06;;;;;;;4.72;1.92;;;563.50;2432.00;;;;;;5073739;28;20078;-74
2021/07/02 01:37:32;;;;;;;3.55;1.98;;;563.50;2432.00;;;;;;5082456;28;20036;-74
2021/07/02 01:39:58;;;;;;;3.50;1.85;;;563.50;2432.00;;;;;;5092116;28;20047;-74
2021/07/02 01:42:30;;;;;;;2.40;1.70;;;563.50;2432.00;;;;;;5082261;28;20060;-74
2021/07/02 01:44:56;;;;;;;4.13;2.00;;;563.50;2432.00;;;;;;5052895;28;20024;-74
2021/07/02 01:47:22;;;;;;;1.52;1.30;;;563.50;2432.00;;;;;;5071217;28;20395;-74
2021/07/02 01:49:57;;;;;;;2.70;1.20;;;563.40;2432.00;;;;;;5066476;28;20059;-74
2021/07/02 01:52:23;;;;;;;2.53;1.23;;;563.40;2432.00;;;;;;5085377;28;20118;-74
2021/07/02 01:55:04;;;;;;;1.05;0.88;;;563.30;2432.00;;;;;;5066263;28;20550;-74
2021/07/02 01:57:33;;;;;;;2.38;0.82;;;563.30;2432.00;;;;;;5071760;28;20115;-74
2021/07/02 02:00:06;;;;;;;1.25;0.95;;;563.30;2406.40;;;;;;5071598;28;20107;-74
2021/07/02 02:02:41;;;;;;;2.38;1.00;;;563.30;2432.00;;;;;;5071603;28;20032;-74
2021/07/02 02:05:13;;;;;;;1.88;1.10;;;563.20;2432.00;;;;;;5055337;28;20024;-74
2021/07/02 02:08:22;;;;;;;2.67;1.25;;;563.20;2432.00;;;;;;5074306;28;20105;-74
2021/07/02 02:10:54;;;;;;;2.78;1.10;;;563.20;2432.00;;;;;;5076466;28;20082;-74
2021/07/02 02:13:22;;;;;;;1.65;1.00;;;563.20;2432.00;;;;;;5079900;28;20078;-74
2021/07/02 02:16:10;;;;;;;4.13;1.30;;;538.40;2406.40;;;;;;5068998;28;20127;-75
2021/07/02 02:18:39;;;;;;;3.92;1.35;;;538.30;2406.40;;;;;;5078833;28;20111;-74
2021/07/02 02:21:04;;;;;;;2.33;1.23;;;538.30;2406.40;;;;;;5086091;28;20094;-74
2021/07/02 02:23:30;;;;;;;2.80;1.30;;;538.30;2406.40;;;;;;5077880;28;20092;-75
2021/07/02 02:26:05;;;;;;;2.38;1.17;;;538.20;2406.40;;;;;;5091465;28;20127;-75
2021/07/02 02:28:30;;;;;;;2.40;1.23;;;538.20;2406.40;;;;;;5063309;28;20081;-75
2021/07/02 02:31:08;;;;;;;2.35;1.45;;;538.20;2406.40;;;;;;5074934;28;20025;-75
2021/07/02 02:33:37;;;;;;;1.95;1.10;;;538.20;2406.40;;;;;;5057120;28;20119;-75
2021/07/02 02:36:45;;;;;;;2.08;1.23;;;538.10;2406.40;;;;;;5074768;28;20073;-75
2021/07/02 02:39:23;;;;;;;3.40;1.60;;;538.20;2406.40;;;;;;5063920;28;20017;-75
2021/07/02 02:41:49;;;;;;;2.25;0.90;;;538.20;2406.40;;;;;;5075507;28;20095;-75
2021/07/02 02:44:18;;;;;;;2.53;1.13;;;538.20;2406.40;;;;;;5057303;28;20115;-75
2021/07/02 02:46:50;;;;;;;3.10;1.50;;;538.20;2406.40;;;;;;5070684;28;20545;-75
2021/07/02 02:49:19;;;;;;;4.22;1.40;;;538.20;2406.40;;;;;;5067723;28;20036;-75
2021/07/02 02:52:06;;;;;;;1.55;1.15;;;538.20;2406.40;;;;;;5056395;28;20511;-75
2021/07/02 02:54:37;;;;;;;3.15;1.80;;;538.20;2406.40;;;;;;5056962;28;20541;-74
2021/07/02 02:57:10;;;;;;;2.85;1.80;;;538.20;2406.40;;;;;;5057169;28;20041;-75
2021/07/02 03:00:10;;;;;;;8.02;2.08;;;538.20;2406.40;;;;;;5085000;28;20024;-74
2021/07/02 03:02:51;;;;;;;3.75;1.77;;;538.20;2406.40;;;;;;5069914;28;20048;-74
2021/07/02 03:05:20;;;;;;;5.78;2.33;;;538.20;2406.40;;;;;;5074677;28;20069;-74
2021/07/02 03:07:52;;;;;;;3.95;2.33;;;538.10;2406.40;;;;;;5063201;28;20058;-74
2021/07/02 03:10:30;;;;;;;3.35;2.35;;;538.10;2406.40;;;;;;5092936;28;20032;-74
2021/07/02 03:13:21;;;;;;;3.15;1.73;;;538.10;2406.40;;;;;;5063028;28;20028;-74
2021/07/02 03:15:53;;;;;;;3.65;1.77;;;538.00;2406.40;;;;;;5087241;28;20031;-74
2021/07/02 03:18:21;;;;;;;4.72;1.92;;;538.10;2406.40;;;;;;5066233;28;20036;-74
2021/07/02 03:20:47;;;;;;;4.22;2.15;;;538.00;2406.40;;;;;;5070451;28;20047;-75
2021/07/02 03:23:22;;;;;;;4.75;1.90;;;537.90;2406.40;;;;;;5083455;28;20024;-75
2021/07/02 03:25:47;;;;;;;3.90;2.58;;;537.80;2406.40;;;;;;5079117;28;20045;-75
2021/07/02 03:28:19;;;;;;;5.03;1.85;;;537.80;2406.40;;;;;;5086332;28;20035;-74
2021/07/02 03:30:51;;;;;;;4.55;1.90;;;537.90;2406.40;;;;;;5066476;28;20115;-76
2021/07/02 03:33:16;;;;;;;3.78;2.10;;;537.90;2406.40;;;;;;5075516;28;20645;-75
2021/07/02 03:35:42;;;;;;;3.85;1.70;;;537.90;2406.40;;;;;;5084961;28;20108;-75
2021/07/02 03:38:14;;;;;;;8.45;2.08;;;538.00;2406.40;;;;;;5069756;28;20089;-75
2021/07/02 03:40:45;;;;;;;2.53;1.67;;;538.00;2406.40;;;;;;5073629;28;20104;-75
2021/07/02 03:43:14;;;;;;;4.22;1.88;;;537.90;2406.40;;;;;;5074973;28;20430;-75
2021/07/02 03:45:55;;;;;;;7.95;1.88;;;537.80;2406.40;;;;;;5074234;28;20515;-76
2021/07/02 03:48:39;;;;;;;9.40;1.50;;;537.90;2406.40;;;;;;5059180;28;20036;-75
2021/07/02 03:51:05;;;;;;;2.70;1.90;;;537.90;2406.40;;;;;;5082670;28;20029;-75
2021/07/02 03:53:34;;;;;;;2.80;1.90;;;537.90;2406.40;;;;;;5076996;28;20031;-75
2021/07/02 03:56:15;;;;;;;2.38;1.48;;;537.90;2406.40;;;;;;5086796;28;20030;-75
2021/07/02 03:58:46;;;;;;;2.25;1.63;;;537.90;2406.40;;;;;;5061945;28;20083;-77
2021/07/02 04:01:15;;;;;;;3.55;2.00;;;538.00;2406.40;;;;;;5055348;28;20127;-75
2021/07/02 04:04:06;;;;;;;4.00;1.98;;;538.00;2406.40;;;;;;5069238;28;20044;-76
2021/07/02 04:06:34;;;;;;;3.67;1.80;;;538.00;2406.40;;;;;;5058434;28;20033;-75
2021/07/02 04:09:00;;;;;;;5.10;2.08;;;537.90;2406.40;;;;;;5061399;28;20428;-75
2021/07/02 04:11:26;;;;;;;2.47;1.85;;;537.80;2406.40;;;;;;5074572;28;20023;-76
2021/07/02 04:17:20;;;;;;;3.15;2.17;;;538.00;2406.40;;;;;;5075640;28;20030;-74
2021/07/02 04:19:48;;;;;;;2.67;2.03;;;538.10;2406.40;;;;;;5056333;28;20032;-76
2021/07/02 04:22:17;;;;;;;3.70;1.80;;;538.00;2406.40;;;;;;5087588;28;20028;-76
2021/07/02 04:24:52;;;;;;;4.07;1.92;;;538.10;2406.40;;;;;;5061256;28;20108;-76
2021/07/02 04:27:20;;;;;;;5.35;1.50;;;538.20;2406.40;;;;;;5071412;28;20051;-76
2021/07/02 04:29:56;;;;;;;3.47;1.90;;;538.30;2406.40;;;;;;5056320;28;20033;-76
2021/07/02 04:32:41;;;;;;;2.83;1.75;;;538.50;2406.40;;;;;;5073014;28;20498;-77
2021/07/02 04:35:11;;;;;;;2.72;1.90;;;538.40;2406.40;;;;;;5068158;28;20032;-76
2021/07/02 04:37:43;;;;;;;4.03;2.15;;;538.40;2406.40;;;;;;5062781;28;20151;-76
2021/07/02 04:40:20;;;;;;;5.03;2.08;;;538.30;2406.40;;;;;;5058442;28;20029;-75
2021/07/02 04:43:08;;;;;;;4.50;2.50;;;538.10;2406.40;;;;;;5059724;28;20086;-76
2021/07/02 04:45:40;;;;;;;4.15;2.42;;;538.20;2406.40;;;;;;5069301;28;20094;-75
2021/07/02 04:48:20;;;;;;;7.75;1.83;;;538.10;2406.40;;;;;;5063518;28;20034;-75
2021/07/02 04:50:49;;;;;;;3.65;2.28;;;538.00;2406.40;;;;;;5071488;28;20025;-75
2021/07/02 04:56:14;;;;;;;5.72;1.98;;;538.20;2406.40;;;;;;5065855;28;20441;-76
2021/07/02 04:58:44;;;;;;;2.78;1.42;;;538.40;2406.40;;;;;;5056448;28;20116;-76
2021/07/02 05:01:14;;;;;;;3.22;1.52;;;538.50;2406.40;;;;;;5058891;28;20098;-76
2021/07/02 05:03:42;;;;;;;2.00;1.60;;;538.50;2406.40;;;;;;5058552;28;20033;-76
2021/07/02 05:06:23;;;;;;;5.18;1.65;;;563.20;2406.40;;;;;;5066169;28;20147;-75
2021/07/02 05:08:53;;;;;;;2.20;1.30;;;563.50;2380.80;;;;;;5067140;28;20024;-75
2021/07/02 05:11:21;;;;;;;2.22;1.55;;;563.70;2355.20;;;;;;5056401;28;20482;-75
2021/07/02 05:13:53;;;;;;;3.75;1.65;;;563.90;2329.60;;;;;;5056741;28;20159;-75
2021/07/02 05:16:25;;;;;;;2.65;1.75;;;564.10;2329.60;;;;;;5057532;28;20024;-75
2021/07/02 05:19:08;;;;;;;2.33;1.70;;;588.80;2304.00;;;;;;5051496;28;20029;-76
2021/07/02 05:21:59;;;;;;;2.78;1.95;;;589.00;2304.00;;;;;;5050779;28;20040;-76
2021/07/02 05:24:56;;;;;;;5.22;1.92;;;589.00;2278.40;;;;;;5063157;28;20151;-76
2021/07/02 05:27:46;;;;;;;3.17;1.83;;;589.30;2278.40;;;;;;5064910;28;20143;-76
2021/07/02 05:30:15;;;;;;;4.72;1.50;;;589.40;2252.80;;;;;;5056025;28;20040;-76
2021/07/02 05:33:08;;;;;;;2.13;1.50;;;589.50;2227.20;;;;;;5052045;28;20074;-75
2021/07/02 05:35:53;;;;;;;2.50;1.77;;;614.40;2201.60;;;;;;5050300;28;20025;-76
2021/07/02 05:38:24;;;;;;;6.03;1.83;;;614.60;2201.60;;;;;;5052028;28;20099;-75
2021/07/02 05:41:18;;;;;;;3.30;1.30;;;614.70;2201.60;;;;;;5054219;28;20533;-76
2021/07/02 05:43:49;;;;;;;3.20;1.50;;;614.90;2176.00;;;;;;5064968;28;20024;-75
2021/07/02 05:46:23;;;;;;;3.80;1.58;;;615.00;2150.40;;;;;;5069320;28;20028;-75
2021/07/02 05:48:49;;;;;;;5.57;2.13;;;640.00;2124.80;;;;;;5062334;28;20119;-75
2021/07/02 05:51:18;;;;;;;3.20;1.95;;;640.30;2099.20;;;;;;5063968;28;20586;-75
2021/07/02 05:53:43;;;;;;;9.68;2.30;;;640.40;2073.60;;;;;;5065124;28;20063;-76
2021/07/02 05:56:09;;;;;;;9.85;6.68;;;640.60;2073.60;;;;;;5067221;28;20028;-75
2021/07/02 06:01:50;;;;;;;4.10;2.10;;;665.70;2048.00;;;;;;5056171;28;20047;-76
2021/07/02 06:04:19;;;;;;;3.35;2.50;;;665.70;2022.40;;;;;;5051775;28;20067;-77
2021/07/02 06:06:50;;;;;;;3.42;2.00;;;640.60;2022.40;;;;;;5068679;28;20036;-76
2021/07/02 06:09:19;;;;;;;6.80;2.47;;;640.50;2022.40;;;;;;5070500;28;20036;-76
2021/07/02 06:12:00;;;;;;;5.40;2.70;;;640.60;2022.40;;;;;;5073739;28;20089;-77
2021/07/02 06:14:31;;;;;;;11.00;5.15;;;665.70;2022.40;;;;;;5067108;28;20067;-77
2021/07/02 06:20:18;;;;;;;8.43;4.68;;;665.70;2022.40;;;;;;5057863;28;20074;-77
2021/07/02 06:22:56;;;;;;;4.55;2.95;;;666.10;1996.80;;;;;;5068348;28;20032;-76
2021/07/02 06:25:22;;;;;;;3.00;2.08;;;666.50;1971.20;;;;;;5068634;28;20040;-77
2021/07/02 06:27:54;;;;;;;3.35;2.05;;;666.40;1971.20;;;;;;5059429;28;20036;-76
2021/07/02 06:33:38;;;;;;;4.40;2.25;;;666.10;1945.60;;;;;;5064543;28;20031;-76
2021/07/02 06:36:04;;;;;;;3.88;2.03;;;666.50;1945.60;;;;;;5067786;28;20021;-76
2021/07/02 06:38:33;;;;;;;6.07;1.95;;;691.40;1894.40;;;;;;5068682;28;20037;-76
2021/07/02 06:41:05;;;;;;;3.10;1.85;;;691.60;1894.40;;;;;;5060070;28;20383;-76
2021/07/02 06:46:24;;;;;;;4.18;1.80;;;691.30;1894.40;;;;;;5056062;28;20067;-76
2021/07/02 06:48:55;;;;;;;4.70;1.58;;;691.70;1894.40;;;;;;5060457;28;20484;-76
2021/07/02 06:51:37;;;;;;;2.20;1.80;;;691.80;1894.40;;;;;;5062792;28;20021;-76
2021/07/02 06:54:15;;;;;;;2.25;1.40;;;692.10;1843.20;;;;;;5054640;28;20029;-77
2021/07/02 06:59:42;;;;;;;1.90;1.45;;;717.10;1817.60;;;;;;5062256;28;20154;-77
2021/07/02 07:02:27;;;;;;;2.85;1.50;;;717.10;1817.60;;;;;;5074106;28;20060;-76
2021/07/02 07:04:52;;;;;;;2.35;1.80;;;717.20;1792.00;;;;;;5055898;28;20021;-76
2021/07/02 07:07:36;;;;;;;3.03;1.77;;;717.20;1792.00;;;;;;5054731;28;20405;-76
2021/07/02 07:10:27;;;;;;;5.32;1.63;;;717.40;1766.40;;;;;;5071676;28;20032;-76
2021/07/02 07:12:59;;;;;;;3.83;1.55;;;717.60;1766.40;;;;;;5069160;28;20536;-81
2021/07/02 07:15:28;;;;;;;2.97;1.40;;;742.50;1740.80;;;;;;5064363;28;20079;-76
2021/07/02 07:18:08;;;;;;;1.92;1.33;;;717.70;1740.80;;;;;;5081119;28;20081;-76
2021/07/02 07:20:50;;;;;;;2.00;1.20;;;717.30;1715.20;;;;;;5053989;28;20443;-75
2021/07/02 07:23:34;;;;;;;2.63;1.33;;;717.20;1715.20;;;;;;5066954;28;20048;-76
2021/07/02 07:26:06;;;;;;;2.90;1.30;;;717.20;1715.20;;;;;;5065532;28;20077;-76
2021/07/02 07:28:38;;;;;;;5.78;1.92;;;717.00;1715.20;;;;;;5074103;28;20082;-76
2021/07/02 07:31:10;;;;;;;3.35;1.95;;;717.00;1715.20;;;;;;5076266;28;20028;-76
2021/07/02 07:34:07;;;;;;;3.47;1.77;;;717.00;1715.20;;;;;;5075929;28;20028;-76
2021/07/02 07:36:53;;;;;;;1.70;1.25;;;717.30;1715.20;;;;;;5065850;28;20077;-76
2021/07/02 07:39:19;;;;;;;;;;;717.60;1689.60;;;;;;5074619;28;20049;-75
2021/07/02 07:41:51;;;;;;;4.45;1.38;;;717.40;1715.20;;;;;;5081892;28;19915;-77
2021/07/02 07:44:20;;;;;;;3.30;1.75;;;717.40;1689.60;;;;;;5088220;28;20034;-76
2021/07/02 07:49:55;;;;;;;2.22;1.45;;;717.70;1689.60;;;;;;5083382;28;20031;-76
2021/07/02 07:55:25;;;;;;;4.22;1.65;;;742.40;1715.20;;;;;;5082907;28;20086;-76
2021/07/02 07:57:51;;;;;;;5.60;2.35;;;742.60;1689.60;;;;;;5061635;28;20028;-76
2021/07/02 08:00:33;;;;;;;3.50;1.70;;;742.60;1689.60;;;;;;5089277;28;20057;-76
2021/07/02 08:03:11;;;;;;;2.97;1.10;;;742.40;1664.00;;;;;;5079964;28;20077;-76
2021/07/02 08:05:55;;;;;;;2.33;1.60;;;742.40;1664.00;;;;;;5071311;28;20047;-77
2021/07/02 08:08:33;;;;;;;1.70;1.20;;;742.50;1664.00;;;;;;5068422;28;20080;-76
2021/07/02 08:11:05;;;;;;;1.85;1.30;;;743.00;1638.40;;;;;;5068808;28;20379;-78
2021/07/02 08:16:27;;;;;;;1.58;1.15;;;768.00;1561.60;;;;;;5081759;28;20035;-76
2021/07/02 08:19:12;;;;;;;1.45;1.35;;;768.00;1561.60;;;;;;5078576;28;20032;-75
2021/07/02 08:21:44;;;;;;;3.00;1.48;;;768.10;1561.60;;;;;;5078584;28;20036;-76
2021/07/02 08:24:15;;;;;;;2.25;1.20;;;768.00;1561.60;;;;;;5060526;28;20036;-76
2021/07/02 08:26:55;;;;;;;3.80;1.38;;;768.10;1536.00;;;;;;5072313;28;20491;-76
2021/07/02 08:29:46;;;;;;;2.13;1.30;;;768.10;1536.00;;;;;;5074677;28;20447;-76
2021/07/02 08:32:27;;;;;;;3.90;1.75;;;768.00;1536.00;;;;;;5072224;28;20029;-77
2021/07/02 08:34:58;;;;;;;1.63;1.13;;;768.10;1510.40;;;;;;5070869;28;20039;-76
2021/07/02 08:37:36;;;;;;;3.55;1.33;;;768.50;1459.20;;;;;;5083742;28;20110;-75
2021/07/02 08:40:24;;;;;;;1.52;1.13;;;768.70;1459.20;;;;;;5068823;28;20020;-76
2021/07/02 08:42:56;;;;;;;2.45;1.27;;;768.70;1459.20;;;;;;5072374;28;20016;-76
2021/07/02 08:45:28;;;;;;;3.70;1.00;;;793.70;1459.20;;;;;;5071058;28;20792;-77
2021/07/02 08:48:06;;;;;;;1.88;1.13;;;793.80;1459.20;;;;;;5054820;28;20111;-78
2021/07/02 08:50:40;;;;;;;3.72;1.20;;;793.60;1433.60;;;;;;5065138;28;20106;-77
2021/07/02 08:56:34;;;;;;;5.32;1.73;;;768.30;1433.60;;;;;;5086019;28;20462;-76
2021/07/02 08:59:00;;;;;;;3.05;1.33;;;768.30;1433.60;;;;;;5062458;28;20079;-77
2021/07/02 09:02:12;;;;;;;3.97;1.67;;;793.60;1433.60;;;;;;5068676;28;20479;-78
2021/07/02 09:04:39;;;;;;;1.23;0.98;;;793.60;1408.00;;;;;;5081977;28;20024;-77
2021/07/02 09:07:19;;;;;;;2.47;1.20;;;768.30;1433.60;;;;;;5073101;28;20032;-78
2021/07/02 09:10:21;;;;;;;3.42;1.40;;;794.30;1408.00;;;;;;5073193;28;20040;-77
2021/07/02 09:13:05;;;;;;;3.05;1.17;;;768.70;1408.00;;;;;;5064334;28;20016;-79
2021/07/02 09:16:02;;;;;;;1.70;1.25;;;793.80;1408.00;;;;;;5070347;28;20027;-78
2021/07/02 09:18:52;;;;;;;4.00;1.38;;;794.50;1382.40;;;;;;5069815;28;20020;-78
2021/07/02 09:24:54;;;;;;;1.83;1.33;;;819.20;1331.20;;;;;;5088197;28;20035;-77
2021/07/02 09:27:57;;;;;;;2.22;1.60;;;819.40;1331.20;;;;;;5090444;28;20436;-75
2021/07/02 09:30:43;;;;;;;3.08;1.48;;;820.10;1305.60;;;;;;5085402;28;20028;-75
2021/07/02 09:36:51;;;;;;;2.83;1.60;;;819.70;1305.60;;;;;;5082906;28;20093;-75
2021/07/02 09:39:53;;;;;;;4.22;1.80;;;794.30;1356.80;;;;;;5088709;28;20759;-74
2021/07/02 09:42:34;;;;;;;3.40;1.42;;;793.60;1382.40;;;;;;5059858;28;20048;-75
2021/07/02 09:49:05;;;;;;;9.90;2.50;;;793.60;1408.00;;;;;;5081394;28;20051;-75
2021/07/02 09:55:05;;;;;;;4.72;1.95;;;768.70;1382.40;;;;;;5087551;28;20027;-75
2021/07/02 09:57:46;;;;;;;4.95;1.30;;;794.30;1382.40;;;;;;5087178;28;20492;-75
2021/07/02 10:03:28;;;;;;;3.85;1.70;;;819.90;1280.00;;;;;;5084386;28;20536;-74
2021/07/02 10:06:32;;;;;;;1.48;1.13;;;819.20;1331.20;;;;;;5084846;28;20016;-73
2021/07/02 10:09:00;;;;;;;3.80;1.63;;;793.60;1356.80;;;;;;5088388;28;20020;-74
2021/07/02 10:11:26;;;;;;;4.68;1.40;;;768.60;1382.40;;;;;;5069630;28;20040;-74
2021/07/02 10:13:52;;;;;;;4.38;1.50;;;768.60;1382.40;;;;;;5083301;28;20047;-74
2021/07/02 10:16:18;;;;;;;4.47;2.50;;;768.40;1382.40;;;;;;5073200;28;20036;-74
2021/07/02 10:18:56;;;;;;;6.97;4.95;;;768.20;1408.00;;;;;;5086278;28;20084;-73
2021/07/02 10:21:24;;;;;;;5.30;1.98;;;768.20;1382.40;;;;;;5088433;28;20081;-76
2021/07/02 10:23:55;;;;;;;7.20;2.35;;;743.10;1408.00;;;;;;5089913;28;20382;-75
2021/07/02 10:26:22;;;;;;;5.88;1.80;;;742.70;1433.60;;;;;;5083269;28;20031;-75
2021/07/02 10:28:48;;;;;;;3.15;1.33;;;793.70;1382.40;;;;;;5073313;28;20044;-76
2021/07/02 10:31:17;;;;;;;3.90;1.80;;;819.40;1331.20;;;;;;5071836;28;20355;-75
2021/07/02 10:33:49;;;;;;;6.15;1.98;;;794.30;1331.20;;;;;;5087904;28;20103;-75
2021/07/02 10:36:16;;;;;;;5.95;1.92;;;819.40;1305.60;;;;;;5063820;28;20371;-73
2021/07/02 10:38:49;;;;;;;3.63;1.90;;;794.10;1356.80;;;;;;5089310;28;20020;-74
2021/07/02 10:41:22;;;;;;;5.40;2.33;;;768.50;1356.80;;;;;;5089411;28;20020;-75
2021/07/02 10:44:12;;;;;;;4.88;1.50;;;768.10;1408.00;;;;;;5072095;28;20053;-75
2021/07/02 10:46:48;;;;;;;3.42;2.22;;;743.00;1433.60;;;;;;5084344;28;20817;-76
2021/07/02 10:49:14;;;;;;;2.72;1.50;;;742.40;1459.20;;;;;;5081454;28;20475;-73
2021/07/02 10:51:51;;;;;;;5.75;2.58;;;717.60;1459.20;;;;;;5082257;28;20051;-76
2021/07/02 10:54:18;;;;;;;6.03;2.00;;;717.70;1484.80;;;;;;5067983;28;20028;-75
2021/07/02 10:56:53;;;;;;;6.97;2.10;;;768.30;1408.00;;;;;;5091269;28;20471;-75
2021/07/02 10:59:20;;;;;;;3.88;1.38;;;793.90;1356.80;;;;;;5090199;28;20032;-74
2021/07/02 11:02:13;;;;;;;3.15;1.67;;;794.50;1331.20;;;;;;5074503;28;20110;-74
2021/07/02 11:04:43;;;;;;;2.20;1.20;;;844.80;1305.60;;;;;;5073896;28;20028;-74
2021/07/02 11:07:12;;;;;;;2.53;1.67;;;820.00;1280.00;;;;;;5074535;28;20056;-74
2021/07/02 11:09:50;;;;;;;4.00;1.60;;;819.20;1331.20;;;;;;5069995;28;20078;-74
2021/07/02 11:12:16;;;;;;;8.48;2.00;;;793.60;1356.80;;;;;;5085006;28;20031;-74
2021/07/02 11:17:20;;;;;;;5.68;1.70;;;743.20;1408.00;;;;;;5088217;28;20036;-73
2021/07/02 11:19:47;;;;;;;8.65;1.80;;;743.00;1433.60;;;;;;5089823;28;20082;-75
2021/07/02 11:22:28;;;;;;;3.30;2.30;;;742.60;1433.60;;;;;;5084336;28;20103;-74
2021/07/02 11:25:04;;;;;;;2.72;1.80;;;717.70;1459.20;;;;;;5086243;28;20020;-74
2021/07/02 11:27:41;;;;;;;4.63;1.30;;;717.40;1459.20;;;;;;5070689;28;20099;-74
2021/07/02 11:33:03;;;;;;;4.45;1.98;;;717.40;1484.80;;;;;;5090177;28;20093;-74
2021/07/02 11:35:31;;;;;;;4.80;1.60;;;717.70;1484.80;;;;;;5086762;28;20154;-74
2021/07/02 11:38:01;;;;;;;4.57;2.05;;;717.30;1459.20;;;;;;5090176;28;20425;-74
2021/07/02 11:40:30;;;;;;;4.13;1.95;;;717.50;1459.20;;;;;;5074126;28;20060;-75
2021/07/02 11:42:57;;;;;;;3.45;1.35;;;717.70;1433.60;;;;;;5083861;28;20501;-74
2021/07/02 11:45:54;;;;;;;3.20;1.60;;;742.60;1408.00;;;;;;5075028;28;20036;-74
2021/07/02 11:48:20;;;;;;;2.38;1.30;;;742.40;1408.00;;;;;;5074560;28;20024;-74
2021/07/02 11:50:51;;;;;;;1.83;1.45;;;742.40;1408.00;;;;;;5072279;28;20039;-74
2021/07/02 11:53:29;;;;;;;3.72;1.45;;;743.10;1382.40;;;;;;5093161;28;20024;-74
2021/07/02 11:55:58;;;;;;;1.73;1.30;;;768.00;1382.40;;;;;;5088382;28;20036;-74
2021/07/02 11:58:30;;;;;;;3.92;1.40;;;768.10;1382.40;;;;;;5087885;28;20107;-74
2021/07/02 12:00:58;;;;;;;4.03;1.70;;;743.20;1408.00;;;;;;5092040;28;20359;-74
2021/07/02 12:03:24;;;;;;;1.77;1.23;;;743.10;1433.60;;;;;;5088661;28;20036;-75
2021/07/02 12:06:00;;;;;;;1.20;1.10;;;743.10;1433.60;;;;;;5062615;28;20039;-75
2021/07/02 12:08:28;;;;;;;3.58;1.67;;;743.00;1433.60;;;;;;5089126;28;20482;-76
2021/07/02 12:11:01;;;;;;;2.95;1.40;;;768.30;1382.40;;;;;;5089172;28;20103;-76
2021/07/02 12:13:28;;;;;;;2.03;1.60;;;793.70;1382.40;;;;;;5086769;28;20023;-75
2021/07/02 12:16:09;;;;;;;2.85;1.40;;;793.60;1356.80;;;;;;5085276;28;20058;-76
2021/07/02 12:18:36;;;;;;;2.53;1.33;;;768.50;1356.80;;;;;;5062408;28;20033;-76
2021/07/02 12:21:06;;;;;;;3.47;1.35;;;768.50;1331.20;;;;;;5069397;28;20028;-76
2021/07/02 12:23:43;;;;;;;3.28;1.52;;;768.50;1331.20;;;;;;5085375;28;20031;-76
2021/07/02 12:26:25;;;;;;;3.28;1.90;;;768.00;1382.40;;;;;;5088508;28;20483;-76
2021/07/02 12:28:52;;;;;;;1.10;1.00;;;768.00;1382.40;;;;;;5087964;28;20044;-76
2021/07/02 12:31:22;;;;;;;2.90;1.30;;;743.20;1382.40;;;;;;5090438;28;20020;-77
2021/07/02 12:33:47;;;;;;;2.63;1.60;;;768.20;1382.40;;;;;;5088578;28;20020;-76
2021/07/02 12:36:13;;;;;;;2.17;1.40;;;794.30;1331.20;;;;;;5091638;28;20020;-75
2021/07/02 12:38:57;;;;;;;6.50;1.83;;;819.60;1280.00;;;;;;5086392;28;20356;-77
2021/07/02 12:41:23;;;;;;;2.72;1.45;;;820.10;1254.40;;;;;;5089642;28;20453;-77
2021/07/02 12:43:49;;;;;;;10.90;1.75;;;845.60;1203.20;;;;;;5091566;28;20020;-76
2021/07/02 12:46:15;;;;;;;3.10;1.38;;;870.80;1203.20;;;;;;5069666;28;20028;-76
2021/07/02 12:48:41;;;;;;;3.83;1.77;;;845.60;1228.80;;;;;;5086650;28;20455;-76
2021/07/02 12:51:08;;;;;;;3.50;1.73;;;845.50;1228.80;;;;;;5072208;28;20036;-76
2021/07/02 12:56:19;;;;;;;4.35;1.88;;;845.40;1228.80;;;;;;5091674;28;20047;-77
2021/07/02 12:58:45;;;;;;;7.55;4.03;;;845.20;1254.40;;;;;;5067866;28;20037;-76
2021/07/02 13:01:10;;;;;;;5.55;3.95;;;844.80;1254.40;;;;;;5083004;28;20028;-77
2021/07/02 13:03:36;;;;;;;4.72;3.55;;;844.80;1254.40;;;;;;5068819;28;20032;-78
2021/07/02 13:06:15;;;;;;;6.72;4.47;;;845.40;1228.80;;;;;;5082104;28;20372;-78
2021/07/02 13:08:41;;;;;;;3.53;1.92;;;844.80;1228.80;;;;;;5068162;28;20028;-77
2021/07/02 13:11:20;;;;;;;4.32;2.00;;;819.80;1228.80;;;;;;5090835;28;20031;-79
2021/07/02 13:13:46;;;;;;;3.97;1.70;;;819.40;1228.80;;;;;;5088038;28;20020;-78
2021/07/02 13:16:12;;;;;;;2.38;1.45;;;819.70;1228.80;;;;;;5086777;28;20387;-78
2021/07/02 13:18:51;;;;;;;3.70;1.50;;;845.40;1203.20;;;;;;5070123;28;20028;-78
2021/07/02 13:21:33;;;;;;;4.30;1.70;;;870.40;1152.00;;;;;;5089540;28;20016;-77
2021/07/02 13:24:00;;;;;;;2.13;1.30;;;871.30;1100.80;;;;;;5083000;28;20013;-76
2021/07/02 13:26:29;;;;;;;3.53;1.80;;;896.50;1075.20;;;;;;5068198;28;20029;-78
2021/07/02 13:29:07;;;;;;;4.45;1.85;;;896.90;1049.60;;;;;;5091023;28;20040;-77
2021/07/02 13:31:36;;;;;;;2.28;1.50;;;896.90;1024.00;;;;;;5067341;28;20031;-78
2021/07/02 13:34:13;;;;;;;3.67;1.80;;;896.50;1049.60;;;;;;5082645;28;20070;-81
2021/07/02 13:36:44;;;;;;;3.47;1.88;;;896.40;1049.60;;;;;;5065041;28;20021;-77
2021/07/02 13:39:20;;;;;;;1.58;1.33;;;896.00;1075.20;;;;;;5089291;28;20404;-77
2021/07/02 13:42:07;;;;;;;11.27;2.95;;;870.90;1100.80;;;;;;5067240;28;20559;-73
2021/07/02 13:44:43;;;;;;;6.07;1.80;;;845.70;1152.00;;;;;;5091606;28;20039;-81
2021/07/02 13:47:17;;;;;;;4.40;2.08;;;819.90;1177.60;;;;;;5065550;28;20038;-77
2021/07/02 13:49:44;;;;;;;3.72;2.00;;;819.40;1203.20;;;;;;5072687;28;20098;-78